Time;durP1;ratioP1;P1;durP2;ratioP2;P2;SDS_P1;SDS_P2;PMS_P1;PMS_P2;Temp;Humidity;BMP_temperature;BMP_pressure;BME280_temperature;BME280_humidity;BME280_pressure;Samples;Min_cycle;Max_cycle;Signal;HPM_P1;HPM_P2
2021/07/07 00:01:58;;;;;;;5.78;2.03;;;;;;;;;;5031157;28;20407;-69
2021/07/07 00:04:24;;;;;;;5.30;2.35;;;;;;;;;;5039198;28;20068;-69
2021/07/07 00:06:50;;;;;;;6.55;2.08;;;;;;;;;;5030466;28;20115;-69
2021/07/07 00:09:16;;;;;;;9.73;2.60;;;;;;;;;;5037855;28;20037;-69
2021/07/07 00:11:42;;;;;;;8.93;2.05;;;;;;;;;;5035039;28;20041;-69
2021/07/07 00:14:08;;;;;;;6.63;1.95;;;;;;;;;;5030351;28;20025;-69
2021/07/07 00:16:35;;;;;;;8.65;2.40;;;;;;;;;;5040145;28;20045;-69
2021/07/07 00:19:01;;;;;;;10.10;2.10;;;;;;;;;;5037789;28;20036;-69
2021/07/07 00:21:27;;;;;;;10.48;2.33;;;;;;;;;;5034338;28;20123;-69
2021/07/07 00:23:54;;;;;;;6.05;2.10;;;;;;;;;;5030574;28;20175;-69
2021/07/07 00:26:21;;;;;;;6.00;2.25;;;;;;;;;;5053084;28;20112;-69
2021/07/07 00:28:47;;;;;;;3.75;2.25;;;;;;;;;;5041873;28;20122;-69
2021/07/07 00:31:13;;;;;;;6.82;2.05;;;;;;;;;;5033998;28;20050;-69
2021/07/07 00:33:39;;;;;;;3.97;1.90;;;;;;;;;;5034144;28;20036;-69
2021/07/07 00:36:05;;;;;;;4.88;2.20;;;;;;;;;;5045755;28;20258;-69
2021/07/07 00:38:32;;;;;;;12.85;3.35;;;;;;;;;;5036119;28;20518;-69
2021/07/07 00:40:58;;;;;;;5.30;2.00;;;;;;;;;;5035239;28;20041;-69
2021/07/07 00:43:24;;;;;;;6.75;2.40;;;;;;;;;;5021601;28;20610;-69
2021/07/07 00:45:50;;;;;;;4.38;2.38;;;;;;;;;;5051539;28;20496;-69
2021/07/07 00:48:17;;;;;;;6.32;2.15;;;;;;;;;;5027706;28;20099;-69
2021/07/07 00:50:43;;;;;;;6.68;2.25;;;;;;;;;;5037302;28;20045;-69
2021/07/07 00:53:12;;;;;;;7.65;2.50;;;;;;;;;;5018979;28;20053;-69
2021/07/07 00:55:40;;;;;;;5.80;2.33;;;;;;;;;;5033909;28;20062;-69
2021/07/07 00:58:10;;;;;;;7.25;2.55;;;;;;;;;;5032865;28;20037;-69
2021/07/07 01:00:36;;;;;;;8.18;2.58;;;;;;;;;;5016302;28;20223;-69
2021/07/07 01:03:03;;;;;;;7.07;3.10;;;;;;;;;;5034221;28;20052;-69
2021/07/07 01:05:29;;;;;;;9.63;2.70;;;;;;;;;;5040050;28;20033;-69
2021/07/07 01:07:55;;;;;;;6.13;2.80;;;;;;;;;;5037846;28;20041;-69
2021/07/07 01:10:21;;;;;;;6.38;2.70;;;;;;;;;;5036110;28;20120;-69
2021/07/07 01:12:47;;;;;;;6.43;2.72;;;;;;;;;;5052002;28;20052;-69
2021/07/07 01:15:16;;;;;;;6.97;2.90;;;;;;;;;;5031068;28;20041;-69
2021/07/07 01:17:42;;;;;;;5.70;2.85;;;;;;;;;;5043855;28;20033;-69
2021/07/07 01:20:10;;;;;;;4.88;2.58;;;;;;;;;;5047586;28;20112;-69
2021/07/07 01:22:37;;;;;;;6.70;3.20;;;;;;;;;;5043758;28;20043;-69
2021/07/07 01:25:05;;;;;;;8.38;3.55;;;;;;;;;;5035814;28;20053;-69
2021/07/07 01:27:31;;;;;;;7.68;3.22;;;;;;;;;;5047868;28;20037;-69
2021/07/07 01:29:57;;;;;;;5.97;2.70;;;;;;;;;;5031450;28;20431;-69
2021/07/07 01:32:24;;;;;;;7.60;3.10;;;;;;;;;;5027910;28;20049;-69
2021/07/07 01:34:53;;;;;;;7.47;3.40;;;;;;;;;;5043437;28;20508;-69
2021/07/07 01:37:19;;;;;;;7.28;3.08;;;;;;;;;;5038553;28;20072;-69
2021/07/07 01:39:45;;;;;;;7.75;3.47;;;;;;;;;;5039256;28;20114;-69
2021/07/07 01:42:11;;;;;;;5.57;2.85;;;;;;;;;;5037816;28;20041;-69
2021/07/07 01:44:38;;;;;;;5.63;2.97;;;;;;;;;;5043405;28;20033;-69
2021/07/07 01:47:06;;;;;;;10.30;3.55;;;;;;;;;;5044580;28;20455;-70
2021/07/07 01:49:32;;;;;;;7.75;2.75;;;;;;;;;;5026645;28;20413;-69
2021/07/07 01:51:58;;;;;;;6.95;2.95;;;;;;;;;;5037600;28;20045;-70
2021/07/07 01:54:24;;;;;;;7.07;2.75;;;;;;;;;;5045095;28;20393;-69
2021/07/07 01:56:50;;;;;;;6.45;3.22;;;;;;;;;;5035736;28;20103;-70
2021/07/07 01:59:16;;;;;;;5.53;3.13;;;;;;;;;;5043933;28;20554;-69
2021/07/07 02:01:43;;;;;;;5.22;2.80;;;;;;;;;;5039263;28;20484;-69
2021/07/07 02:04:09;;;;;;;6.95;2.78;;;;;;;;;;5035838;28;20042;-69
2021/07/07 02:06:36;;;;;;;6.43;3.25;;;;;;;;;;5040010;28;20045;-69
2021/07/07 02:09:05;;;;;;;6.53;3.33;;;;;;;;;;5043789;28;20511;-69
2021/07/07 02:11:31;;;;;;;6.55;2.92;;;;;;;;;;5038254;28;20037;-69
2021/07/07 02:13:57;;;;;;;7.50;2.95;;;;;;;;;;5035792;28;20049;-69
2021/07/07 02:16:23;;;;;;;7.07;3.08;;;;;;;;;;5040869;28;20444;-69
2021/07/07 02:18:49;;;;;;;6.82;3.05;;;;;;;;;;5038214;28;20468;-69
2021/07/07 02:21:15;;;;;;;5.57;2.85;;;;;;;;;;5030039;28;20069;-69
2021/07/07 02:23:42;;;;;;;5.15;3.20;;;;;;;;;;5041274;28;20045;-69
2021/07/07 02:26:08;;;;;;;5.65;2.88;;;;;;;;;;5036760;28;20041;-69
2021/07/07 02:28:35;;;;;;;6.47;3.28;;;;;;;;;;5041443;28;20393;-69
2021/07/07 02:31:01;;;;;;;9.90;3.40;;;;;;;;;;5043044;28;20398;-69
2021/07/07 02:33:27;;;;;;;8.75;3.47;;;;;;;;;;5028297;28;20465;-69
2021/07/07 02:35:54;;;;;;;10.60;3.78;;;;;;;;;;5042981;28;20060;-69
2021/07/07 02:38:21;;;;;;;4.68;3.13;;;;;;;;;;5034659;28;20103;-69
2021/07/07 02:40:49;;;;;;;10.18;3.50;;;;;;;;;;5035056;28;20055;-69
2021/07/07 02:43:15;;;;;;;8.32;3.65;;;;;;;;;;5033890;28;20059;-69
2021/07/07 02:45:42;;;;;;;6.70;3.85;;;;;;;;;;5052630;28;20069;-69
2021/07/07 02:48:09;;;;;;;5.65;3.65;;;;;;;;;;5038043;28;20064;-69
2021/07/07 02:50:37;;;;;;;8.73;3.50;;;;;;;;;;5046480;28;20450;-69
2021/07/07 02:53:03;;;;;;;7.95;3.80;;;;;;;;;;5031474;28;20061;-69
2021/07/07 02:55:29;;;;;;;7.32;3.42;;;;;;;;;;5043210;28;20059;-69
2021/07/07 02:57:56;;;;;;;9.93;3.30;;;;;;;;;;5038898;28;20045;-69
2021/07/07 03:00:29;;;;;;;7.85;3.83;;;;;;;;;;5021316;28;20397;-69
2021/07/07 03:02:56;;;;;;;6.97;3.80;;;;;;;;;;5034934;28;20121;-69
2021/07/07 03:05:22;;;;;;;7.93;3.97;;;;;;;;;;5034684;28;20090;-69
2021/07/07 03:07:48;;;;;;;7.45;3.60;;;;;;;;;;5038139;28;20040;-69
2021/07/07 03:10:15;;;;;;;6.18;2.92;;;;;;;;;;5041548;28;20039;-69
2021/07/07 03:12:41;;;;;;;7.35;3.50;;;;;;;;;;5037020;28;20442;-69
2021/07/07 03:15:07;;;;;;;5.97;3.70;;;;;;;;;;5022574;28;20378;-69
2021/07/07 03:17:34;;;;;;;7.28;3.00;;;;;;;;;;5041992;28;20456;-69
2021/07/07 03:20:00;;;;;;;8.35;3.47;;;;;;;;;;5037186;28;20063;-69
2021/07/07 03:22:26;;;;;;;8.07;3.20;;;;;;;;;;5043240;28;20041;-69
2021/07/07 03:24:54;;;;;;;5.28;3.05;;;;;;;;;;5033231;28;20056;-69
2021/07/07 03:27:21;;;;;;;6.32;3.10;;;;;;;;;;5034165;28;20033;-69
2021/07/07 03:29:47;;;;;;;7.90;3.40;;;;;;;;;;5033350;28;20091;-69
2021/07/07 03:32:13;;;;;;;5.40;3.25;;;;;;;;;;5039095;28;20040;-69
2021/07/07 03:34:39;;;;;;;10.38;3.25;;;;;;;;;;5035241;28;20533;-69
2021/07/07 03:37:05;;;;;;;7.78;3.50;;;;;;;;;;5040774;28;20472;-69
2021/07/07 03:39:31;;;;;;;10.27;3.60;;;;;;;;;;5039609;28;20125;-69
2021/07/07 03:41:58;;;;;;;5.65;3.10;;;;;;;;;;5030726;28;20037;-69
2021/07/07 03:44:24;;;;;;;6.95;3.35;;;;;;;;;;5042811;28;20083;-69
2021/07/07 03:46:50;;;;;;;9.98;4.00;;;;;;;;;;5028444;28;20037;-69
2021/07/07 03:49:16;;;;;;;7.25;3.10;;;;;;;;;;5033735;28;20038;-69
2021/07/07 03:51:42;;;;;;;6.35;3.47;;;;;;;;;;5031372;28;20033;-69
2021/07/07 03:54:08;;;;;;;4.80;3.28;;;;;;;;;;5043790;28;20524;-69
2021/07/07 03:56:34;;;;;;;8.73;3.70;;;;;;;;;;5009553;28;20037;-69
2021/07/07 03:59:01;;;;;;;9.02;3.67;;;;;;;;;;5034487;28;20038;-69
2021/07/07 04:01:27;;;;;;;9.40;3.72;;;;;;;;;;5028676;28;20117;-69
2021/07/07 04:03:53;;;;;;;7.90;3.40;;;;;;;;;;5043982;28;20033;-69
2021/07/07 04:06:19;;;;;;;9.07;3.97;;;;;;;;;;5027162;28;20064;-69
2021/07/07 04:08:45;;;;;;;8.32;3.47;;;;;;;;;;5035619;28;20030;-70
2021/07/07 04:11:11;;;;;;;6.22;3.13;;;;;;;;;;5037025;28;20033;-69
2021/07/07 04:13:38;;;;;;;7.10;3.47;;;;;;;;;;5018850;28;20053;-69
2021/07/07 04:16:04;;;;;;;7.05;3.50;;;;;;;;;;5023456;28;20134;-69
2021/07/07 04:18:30;;;;;;;7.68;3.25;;;;;;;;;;5029567;28;20048;-69
2021/07/07 04:20:56;;;;;;;7.82;3.47;;;;;;;;;;5034256;28;20068;-69
2021/07/07 04:23:22;;;;;;;7.82;3.40;;;;;;;;;;5028394;28;20443;-69
2021/07/07 04:25:49;;;;;;;5.88;3.35;;;;;;;;;;5037780;28;20037;-69
2021/07/07 04:28:15;;;;;;;6.15;3.38;;;;;;;;;;5028404;28;20120;-69
2021/07/07 04:30:41;;;;;;;8.48;4.20;;;;;;;;;;5034097;28;20049;-69
2021/07/07 04:33:08;;;;;;;7.13;4.05;;;;;;;;;;5032728;28;20053;-69
2021/07/07 04:35:34;;;;;;;6.88;3.70;;;;;;;;;;5036727;28;20124;-69
2021/07/07 04:38:00;;;;;;;8.23;3.42;;;;;;;;;;5030937;28;20858;-69
2021/07/07 04:40:26;;;;;;;8.48;3.92;;;;;;;;;;5038647;28;20794;-69
2021/07/07 04:42:54;;;;;;;8.88;4.15;;;;;;;;;;5030069;28;20041;-69
2021/07/07 04:45:20;;;;;;;8.73;4.00;;;;;;;;;;5040522;28;20039;-70
2021/07/07 04:47:46;;;;;;;9.50;4.32;;;;;;;;;;5030696;28;20045;-70
2021/07/07 04:50:14;;;;;;;6.68;3.90;;;;;;;;;;5039966;28;20444;-70
2021/07/07 04:52:41;;;;;;;7.70;3.88;;;;;;;;;;5034519;28;20511;-70
2021/07/07 04:55:08;;;;;;;7.72;3.88;;;;;;;;;;5034137;28;20039;-69
2021/07/07 04:57:41;;;;;;;9.35;3.75;;;;;;;;;;5038648;28;20079;-69
2021/07/07 05:00:15;;;;;;;7.15;3.60;;;;;;;;;;5032019;28;20110;-69
2021/07/07 05:02:42;;;;;;;5.88;3.40;;;;;;;;;;5033310;28;20426;-69
2021/07/07 05:05:09;;;;;;;5.72;3.67;;;;;;;;;;5027928;28;20045;-69
2021/07/07 05:07:35;;;;;;;8.15;3.97;;;;;;;;;;5039836;28;20917;-69
2021/07/07 05:10:03;;;;;;;9.20;3.83;;;;;;;;;;5029226;28;20048;-69
2021/07/07 05:12:29;;;;;;;5.50;3.40;;;;;;;;;;5034417;28;20033;-69
2021/07/07 05:14:56;;;;;;;8.88;3.47;;;;;;;;;;5039688;28;20033;-69
2021/07/07 05:17:24;;;;;;;5.90;2.95;;;;;;;;;;5036771;28;20048;-69
2021/07/07 05:19:50;;;;;;;5.90;3.20;;;;;;;;;;5029852;28;20076;-69
2021/07/07 05:22:16;;;;;;;5.93;3.75;;;;;;;;;;5032840;28;20044;-69
2021/07/07 05:24:43;;;;;;;5.88;3.25;;;;;;;;;;5026303;28;20048;-70
2021/07/07 05:27:09;;;;;;;4.63;2.83;;;;;;;;;;5032343;28;20445;-70
2021/07/07 05:29:36;;;;;;;6.10;3.25;;;;;;;;;;5029178;28;20037;-70
2021/07/07 05:32:02;;;;;;;5.65;3.20;;;;;;;;;;5031820;28;20116;-70
2021/07/07 05:34:29;;;;;;;7.07;2.90;;;;;;;;;;5026711;28;20045;-70
2021/07/07 05:36:55;;;;;;;5.07;2.53;;;;;;;;;;5033353;28;20037;-70
2021/07/07 05:39:21;;;;;;;3.05;2.50;;;;;;;;;;5033606;28;20034;-70
2021/07/07 05:41:47;;;;;;;4.90;2.25;;;;;;;;;;5031736;28;20049;-69
2021/07/07 05:44:13;;;;;;;4.70;2.42;;;;;;;;;;5041924;28;20091;-70
2021/07/07 05:46:40;;;;;;;5.75;2.67;;;;;;;;;;5031266;28;20034;-70
2021/07/07 05:49:06;;;;;;;4.85;2.15;;;;;;;;;;5042414;28;20102;-69
2021/07/07 05:51:33;;;;;;;8.23;2.63;;;;;;;;;;5021608;28;20045;-68
2021/07/07 05:53:59;;;;;;;7.53;2.33;;;;;;;;;;5039549;28;20132;-69
2021/07/07 05:56:25;;;;;;;7.38;2.67;;;;;;;;;;5022181;28;20057;-69
2021/07/07 05:58:51;;;;;;;4.97;2.60;;;;;;;;;;5043906;28;20042;-69
2021/07/07 06:01:17;;;;;;;4.28;2.10;;;;;;;;;;5037786;28;20033;-69
2021/07/07 06:03:44;;;;;;;5.43;2.75;;;;;;;;;;5044950;28;20124;-69
2021/07/07 06:06:10;;;;;;;6.47;2.25;;;;;;;;;;5042744;28;20426;-69
2021/07/07 06:08:36;;;;;;;4.95;2.20;;;;;;;;;;5044367;28;20067;-69
2021/07/07 06:11:02;;;;;;;5.57;1.90;;;;;;;;;;5037904;28;20185;-70
2021/07/07 06:13:28;;;;;;;4.38;1.98;;;;;;;;;;5050968;28;20045;-70
2021/07/07 06:15:55;;;;;;;6.70;2.17;;;;;;;;;;5041642;28;20033;-70
2021/07/07 06:18:21;;;;;;;6.10;2.65;;;;;;;;;;5026168;28;20037;-70
2021/07/07 06:20:47;;;;;;;5.63;1.98;;;;;;;;;;5045778;28;20377;-70
2021/07/07 06:23:13;;;;;;;4.10;2.15;;;;;;;;;;5030378;28;20033;-70
2021/07/07 06:25:40;;;;;;;5.05;2.40;;;;;;;;;;5037167;28;20084;-70
2021/07/07 06:28:07;;;;;;;6.35;3.00;;;;;;;;;;5030613;28;20037;-70
2021/07/07 06:30:34;;;;;;;4.80;2.65;;;;;;;;;;5041522;28;20127;-70
2021/07/07 06:33:01;;;;;;;6.05;2.95;;;;;;;;;;5034947;28;20437;-70
2021/07/07 06:35:30;;;;;;;5.55;2.53;;;;;;;;;;5041937;28;20110;-70
2021/07/07 06:37:57;;;;;;;6.47;2.60;;;;;;;;;;5036767;28;20071;-70
2021/07/07 06:40:23;;;;;;;6.13;2.85;;;;;;;;;;5043528;28;20037;-70
2021/07/07 06:42:49;;;;;;;7.13;2.42;;;;;;;;;;5030097;28;20041;-70
2021/07/07 06:45:16;;;;;;;6.78;2.72;;;;;;;;;;5043604;28;20040;-70
2021/07/07 06:47:43;;;;;;;5.25;2.80;;;;;;;;;;5022152;28;20056;-70
2021/07/07 06:50:10;;;;;;;6.10;2.88;;;;;;;;;;5042749;28;20128;-70
2021/07/07 06:52:36;;;;;;;7.53;2.60;;;;;;;;;;5039863;28;20135;-70
2021/07/07 06:55:04;;;;;;;6.63;2.88;;;;;;;;;;5046747;28;20088;-70
2021/07/07 06:57:34;;;;;;;6.55;3.03;;;;;;;;;;5039882;28;20033;-70
2021/07/07 07:00:02;;;;;;;6.57;3.03;;;;;;;;;;5041870;28;20400;-70
2021/07/07 07:02:30;;;;;;;8.80;2.95;;;;;;;;;;5027976;28;20456;-70
2021/07/07 07:04:57;;;;;;;6.75;2.88;;;;;;;;;;5017473;28;20059;-70
2021/07/07 07:07:23;;;;;;;8.13;3.08;;;;;;;;;;5025690;28;20055;-70
2021/07/07 07:09:49;;;;;;;7.32;2.88;;;;;;;;;;5034434;28;20083;-70
2021/07/07 07:12:15;;;;;;;5.82;3.22;;;;;;;;;;5043576;28;20033;-70
2021/07/07 07:14:41;;;;;;;12.27;3.58;;;;;;;;;;5035676;28;20036;-70
2021/07/07 07:17:08;;;;;;;5.53;2.70;;;;;;;;;;5039199;28;20522;-70
2021/07/07 07:19:34;;;;;;;9.73;3.10;;;;;;;;;;5033232;28;20067;-70
2021/07/07 07:22:00;;;;;;;5.82;2.88;;;;;;;;;;5039070;28;20061;-70
2021/07/07 07:24:30;;;;;;;10.20;3.40;;;;;;;;;;5032854;28;20067;-70
2021/07/07 07:26:57;;;;;;;6.85;2.60;;;;;;;;;;5033460;28;20067;-70
2021/07/07 07:29:24;;;;;;;8.13;3.28;;;;;;;;;;5028355;28;20033;-70
2021/07/07 07:31:51;;;;;;;7.03;2.60;;;;;;;;;;5038293;28;20130;-70
2021/07/07 07:34:17;;;;;;;8.02;2.75;;;;;;;;;;5028449;28;20037;-71
2021/07/07 07:36:44;;;;;;;9.98;3.03;;;;;;;;;;5045424;28;20049;-70
2021/07/07 07:39:14;;;;;;;5.97;2.55;;;;;;;;;;5031463;28;20069;-70
2021/07/07 07:41:41;;;;;;;10.07;3.10;;;;;;;;;;5035822;28;20065;-70
2021/07/07 07:44:08;;;;;;;5.38;2.40;;;;;;;;;;5033067;28;20037;-70
2021/07/07 07:46:34;;;;;;;5.88;2.58;;;;;;;;;;5039086;28;20120;-70
2021/07/07 07:49:01;;;;;;;4.22;1.95;;;;;;;;;;5034664;28;20041;-70
2021/07/07 07:51:28;;;;;;;6.47;2.45;;;;;;;;;;5033279;28;20037;-71
2021/07/07 07:53:54;;;;;;;6.28;2.53;;;;;;;;;;5046053;28;20550;-70
2021/07/07 07:56:20;;;;;;;6.32;2.15;;;;;;;;;;5032516;28;20461;-70
2021/07/07 07:58:47;;;;;;;6.07;2.17;;;;;;;;;;5024815;28;20063;-70
2021/07/07 08:01:15;;;;;;;5.10;2.13;;;;;;;;;;5018584;28;20400;-70
2021/07/07 08:03:41;;;;;;;7.25;2.20;;;;;;;;;;5035119;28;20037;-70
2021/07/07 08:06:08;;;;;;;5.90;2.13;;;;;;;;;;5029910;28;20092;-70
2021/07/07 08:08:34;;;;;;;7.28;2.70;;;;;;;;;;5033564;28;20033;-70
2021/07/07 08:11:00;;;;;;;8.65;2.50;;;;;;;;;;5012316;28;20059;-70
2021/07/07 08:13:26;;;;;;;4.65;2.25;;;;;;;;;;5046560;28;20535;-70
2021/07/07 08:15:53;;;;;;;7.63;2.63;;;;;;;;;;5012190;28;20460;-70
2021/07/07 08:18:19;;;;;;;5.22;2.40;;;;;;;;;;5033294;28;20044;-70
2021/07/07 08:20:45;;;;;;;6.30;2.38;;;;;;;;;;5028616;28;20120;-70
2021/07/07 08:23:12;;;;;;;8.57;2.97;;;;;;;;;;5033019;28;20048;-70
2021/07/07 08:25:38;;;;;;;15.40;2.63;;;;;;;;;;5034523;28;20052;-70
2021/07/07 08:28:05;;;;;;;4.55;2.20;;;;;;;;;;5029573;28;20442;-70
2021/07/07 08:30:51;;;;;;;7.80;3.67;;;;;;;;;;5019363;28;20041;-70
2021/07/07 08:33:17;;;;;;;7.20;3.25;;;;;;;;;;5026247;28;20049;-71
2021/07/07 08:35:44;;;;;;;7.90;3.90;;;;;;;;;;5036232;28;20080;-71
2021/07/07 08:38:11;;;;;;;8.77;2.88;;;;;;;;;;5031704;28;20095;-71
2021/07/07 08:40:37;;;;;;;7.35;3.10;;;;;;;;;;5033300;28;20548;-72
2021/07/07 08:43:04;;;;;;;8.90;3.38;;;;;;;;;;5027851;28;20457;-72
2021/07/07 08:45:32;;;;;;;8.18;3.20;;;;;;;;;;5017156;28;20034;-72
2021/07/07 08:47:59;;;;;;;8.88;3.08;;;;;;;;;;5027261;28;20401;-71
2021/07/07 08:50:26;;;;;;;7.20;2.50;;;;;;;;;;5044219;28;20037;-72
2021/07/07 08:52:54;;;;;;;10.10;3.03;;;;;;;;;;5028870;28;20052;-71
2021/07/07 08:55:24;;;;;;;5.53;2.30;;;;;;;;;;5034667;28;20514;-71
2021/07/07 08:57:51;;;;;;;5.18;1.98;;;;;;;;;;5028810;28;20040;-72
2021/07/07 09:00:28;;;;;;;8.85;2.40;;;;;;;;;;5033749;28;20068;-72
2021/07/07 09:02:56;;;;;;;6.35;2.05;;;;;;;;;;5028238;28;20125;-72
2021/07/07 09:05:24;;;;;;;7.88;2.03;;;;;;;;;;5035463;28;20037;-73
2021/07/07 09:07:50;;;;;;;8.00;2.10;;;;;;;;;;5026966;28;20033;-72
2021/07/07 09:10:26;;;;;;;5.13;2.08;;;;;;;;;;5042084;28;20040;-72
2021/07/07 09:13:14;;;;;;;7.45;2.15;;;;;;;;;;5033056;28;20069;-72
2021/07/07 09:15:41;;;;;;;7.57;2.40;;;;;;;;;;5036151;28;20487;-72
2021/07/07 09:18:08;;;;;;;4.80;2.15;;;;;;;;;;5014846;28;20048;-74
2021/07/07 09:20:40;;;;;;;7.05;2.25;;;;;;;;;;5033777;28;20072;-73
2021/07/07 09:23:16;;;;;;;6.43;2.10;;;;;;;;;;5016504;28;20057;-73
2021/07/07 09:25:56;;;;;;;9.35;2.22;;;;;;;;;;5039062;28;20088;-73
2021/07/07 09:28:29;;;;;;;6.63;2.20;;;;;;;;;;5031916;28;20060;-73
2021/07/07 09:30:56;;;;;;;6.03;2.35;;;;;;;;;;5038447;28;20052;-73
2021/07/07 09:33:43;;;;;;;7.85;2.60;;;;;;;;;;5019387;28;20056;-74
2021/07/07 09:36:29;;;;;;;5.28;1.67;;;;;;;;;;5033557;28;20456;-74
2021/07/07 09:39:16;;;;;;;6.05;1.83;;;;;;;;;;5017699;28;20246;-74
2021/07/07 09:41:43;;;;;;;6.60;1.80;;;;;;;;;;5043397;28;20047;-74
2021/07/07 09:44:31;;;;;;;7.20;3.13;;;;;;;;;;5020748;28;20094;-74
2021/07/07 09:46:58;;;;;;;5.30;1.88;;;;;;;;;;5042093;28;20049;-74
2021/07/07 09:49:25;;;;;;;6.75;1.80;;;;;;;;;;5014831;28;20049;-74
2021/07/07 09:52:13;;;;;;;4.65;1.42;;;;;;;;;;5029048;28;20204;-74
2021/07/07 09:54:39;;;;;;;5.00;1.55;;;;;;;;;;5037700;28;20114;-74
2021/07/07 09:57:05;;;;;;;8.48;1.73;;;;;;;;;;5040412;28;20465;-72
2021/07/07 09:59:31;;;;;;;4.88;1.15;;;;;;;;;;5035461;28;20337;-73
2021/07/07 10:01:58;;;;;;;7.05;1.52;;;;;;;;;;5047892;28;20041;-73
2021/07/07 10:04:44;;;;;;;7.10;1.40;;;;;;;;;;5030222;28;20136;-73
2021/07/07 10:07:31;;;;;;;7.00;1.35;;;;;;;;;;5028861;28;20107;-73
2021/07/07 10:10:18;;;;;;;7.47;1.45;;;;;;;;;;5021128;28;20045;-73
2021/07/07 10:12:45;;;;;;;7.45;1.40;;;;;;;;;;5044156;28;20066;-73
2021/07/07 10:15:15;;;;;;;3.40;1.02;;;;;;;;;;5037282;28;20045;-73
2021/07/07 10:17:43;;;;;;;7.93;1.50;;;;;;;;;;5036893;28;20365;-73
2021/07/07 10:20:13;;;;;;;5.97;1.60;;;;;;;;;;5040410;28;20040;-73
2021/07/07 10:22:40;;;;;;;6.88;1.35;;;;;;;;;;5040780;28;20118;-73
2021/07/07 10:25:07;;;;;;;7.03;1.33;;;;;;;;;;5047237;28;20033;-72
2021/07/07 10:27:35;;;;;;;5.72;1.15;;;;;;;;;;5032299;28;20041;-72
2021/07/07 10:30:03;;;;;;;5.75;1.25;;;;;;;;;;5037436;28;20041;-72
2021/07/07 10:32:29;;;;;;;3.75;1.13;;;;;;;;;;5023574;28;20137;-72
2021/07/07 10:35:03;;;;;;;6.70;1.42;;;;;;;;;;5044106;28;20041;-72
2021/07/07 10:37:29;;;;;;;5.20;1.63;;;;;;;;;;5037276;28;20447;-71
2021/07/07 10:40:15;;;;;;;4.85;1.27;;;;;;;;;;5042156;28;20477;-71
2021/07/07 10:42:42;;;;;;;3.95;0.98;;;;;;;;;;5029136;28;20116;-71
2021/07/07 10:45:08;;;;;;;5.40;1.60;;;;;;;;;;5045964;28;20041;-71
2021/07/07 10:47:36;;;;;;;7.97;2.13;;;;;;;;;;5031309;28;20079;-71
2021/07/07 10:50:04;;;;;;;7.63;1.33;;;;;;;;;;5033760;28;20037;-71
2021/07/07 10:52:33;;;;;;;6.85;1.48;;;;;;;;;;5009155;28;20072;-71
2021/07/07 10:55:00;;;;;;;6.05;1.23;;;;;;;;;;5035582;28;20506;-71
2021/07/07 10:57:47;;;;;;;7.40;1.35;;;;;;;;;;5009303;28;20033;-70
2021/07/07 11:00:22;;;;;;;6.97;1.38;;;;;;;;;;5037418;28;20041;-70
2021/07/07 11:02:48;;;;;;;4.78;1.10;;;;;;;;;;5029059;28;20044;-71
2021/07/07 11:05:25;;;;;;;8.05;1.27;;;;;;;;;;5035015;28;20045;-67
2021/07/07 11:07:51;;;;;;;4.40;1.02;;;;;;;;;;5032553;28;20053;-68
2021/07/07 11:10:18;;;;;;;5.75;1.40;;;;;;;;;;5026435;28;20052;-68
2021/07/07 11:12:45;;;;;;;6.78;1.23;;;;;;;;;;5013947;28;20056;-71
2021/07/07 11:15:11;;;;;;;5.95;1.27;;;;;;;;;;5042679;28;20043;-71
2021/07/07 11:17:38;;;;;;;9.50;1.40;;;;;;;;;;5034565;28;20033;-71
2021/07/07 11:20:08;;;;;;;5.43;1.50;;;;;;;;;;5035719;28;20115;-71
2021/07/07 11:22:35;;;;;;;6.13;1.38;;;;;;;;;;5034233;28;20183;-71
2021/07/07 11:25:04;;;;;;;5.57;1.27;;;;;;;;;;5029787;28;20168;-71
2021/07/07 11:27:32;;;;;;;4.95;1.35;;;;;;;;;;5039033;28;20083;-71
2021/07/07 11:29:58;;;;;;;6.50;1.70;;;;;;;;;;5011328;28;20045;-71
2021/07/07 11:32:25;;;;;;;7.72;2.33;;;;;;;;;;5015345;28;20053;-71
2021/07/07 11:35:02;;;;;;;7.15;1.77;;;;;;;;;;5029054;28;20476;-71
2021/07/07 11:37:30;;;;;;;7.40;1.98;;;;;;;;;;5019713;28;20037;-71
2021/07/07 11:40:11;;;;;;;5.70;1.92;;;;;;;;;;5031041;28;20128;-70
2021/07/07 11:42:52;;;;;;;8.27;1.88;;;;;;;;;;5032651;28;20751;-71
2021/07/07 11:45:22;;;;;;;8.23;1.98;;;;;;;;;;5026815;28;20084;-70
2021/07/07 11:47:54;;;;;;;10.77;2.15;;;;;;;;;;5034536;28;20060;-70
2021/07/07 11:50:21;;;;;;;8.18;1.92;;;;;;;;;;5032265;28;20261;-70
2021/07/07 11:52:54;;;;;;;9.95;2.03;;;;;;;;;;5043920;28;20041;-70
2021/07/07 11:55:39;;;;;;;7.38;1.92;;;;;;;;;;5032881;28;20182;-70
2021/07/07 11:58:05;;;;;;;7.70;1.70;;;;;;;;;;5032813;28;20099;-70
2021/07/07 12:00:38;;;;;;;7.85;2.00;;;;;;;;;;5030640;28;20029;-70
2021/07/07 12:03:04;;;;;;;6.82;1.83;;;;;;;;;;5031717;28;20045;-70
2021/07/07 12:05:30;;;;;;;6.65;1.80;;;;;;;;;;5030693;28;20295;-70
2021/07/07 12:08:12;;;;;;;7.10;2.25;;;;;;;;;;5017157;28;20527;-70
2021/07/07 12:10:39;;;;;;;6.25;1.75;;;;;;;;;;5028377;28;20028;-70
2021/07/07 12:13:21;;;;;;;8.68;2.33;;;;;;;;;;5041968;28;20098;-71
2021/07/07 12:15:47;;;;;;;9.43;2.58;;;;;;;;;;5028674;28;20115;-71
2021/07/07 12:18:26;;;;;;;8.35;2.50;;;;;;;;;;5037179;28;20411;-72
2021/07/07 12:20:53;;;;;;;5.97;2.20;;;;;;;;;;5036026;28;20041;-72
2021/07/07 12:23:19;;;;;;;5.93;2.50;;;;;;;;;;5032426;28;20459;-72
2021/07/07 12:25:46;;;;;;;5.80;2.60;;;;;;;;;;5027939;28;20041;-72
2021/07/07 12:28:12;;;;;;;8.38;2.58;;;;;;;;;;5040052;28;20304;-72
2021/07/07 12:30:38;;;;;;;5.15;2.10;;;;;;;;;;5028562;28;23717;-72
2021/07/07 12:33:05;;;;;;;5.93;2.17;;;;;;;;;;5016063;28;20476;-72
2021/07/07 12:35:31;;;;;;;5.65;2.45;;;;;;;;;;5037157;28;20124;-72
2021/07/07 12:37:58;;;;;;;5.93;2.58;;;;;;;;;;5040631;28;20037;-72
2021/07/07 12:40:25;;;;;;;6.38;2.88;;;;;;;;;;5021080;28;20432;-72
2021/07/07 12:42:54;;;;;;;7.00;2.47;;;;;;;;;;5035999;28;20045;-72
2021/07/07 12:45:20;;;;;;;5.95;2.95;;;;;;;;;;5037589;28;20116;-72
2021/07/07 12:48:03;;;;;;;6.55;2.60;;;;;;;;;;5016081;28;20535;-72
2021/07/07 12:50:33;;;;;;;5.15;2.30;;;;;;;;;;5030740;28;20052;-72
2021/07/07 12:52:59;;;;;;;5.32;2.20;;;;;;;;;;5036900;28;20041;-72
2021/07/07 12:55:27;;;;;;;5.28;2.10;;;;;;;;;;5036079;28;20064;-72
2021/07/07 12:58:05;;;;;;;5.53;2.33;;;;;;;;;;5029484;28;20064;-72
2021/07/07 13:00:31;;;;;;;4.38;2.20;;;;;;;;;;5038029;28;20044;-72
2021/07/07 13:02:58;;;;;;;4.70;1.90;;;;;;;;;;5033297;28;20039;-72
2021/07/07 13:05:33;;;;;;;2.88;1.25;;;;;;;;;;5040845;28;20435;-72
2021/07/07 13:08:00;;;;;;;3.67;1.42;;;;;;;;;;5030587;28;20045;-72
2021/07/07 13:10:47;;;;;;;4.22;1.33;;;;;;;;;;5045617;28;20153;-72
2021/07/07 13:13:22;;;;;;;4.30;1.40;;;;;;;;;;5023141;28;20420;-72
2021/07/07 13:16:07;;;;;;;3.03;1.15;;;;;;;;;;5037467;28;20421;-72
2021/07/07 13:18:33;;;;;;;3.40;1.60;;;;;;;;;;5014964;28;20053;-67
2021/07/07 13:21:04;;;;;;;4.10;1.10;;;;;;;;;;5049291;28;20504;-67
2021/07/07 13:23:30;;;;;;;4.88;1.58;;;;;;;;;;5035118;28;20037;-67
2021/07/07 13:26:15;;;;;;;3.00;1.20;;;;;;;;;;5041490;28;20041;-67
2021/07/07 13:28:43;;;;;;;5.93;1.77;;;;;;;;;;5030557;28;20669;-67
2021/07/07 13:31:12;;;;;;;5.35;1.65;;;;;;;;;;5040388;28;20488;-67
2021/07/07 13:33:38;;;;;;;4.53;1.20;;;;;;;;;;5011512;28;20071;-67
2021/07/07 13:36:05;;;;;;;5.07;1.60;;;;;;;;;;5048825;28;20044;-67
2021/07/07 13:38:31;;;;;;;7.65;1.58;;;;;;;;;;5033333;28;20049;-67
2021/07/07 13:40:58;;;;;;;4.47;1.88;;;;;;;;;;5041929;28;20481;-67
2021/07/07 13:43:24;;;;;;;5.22;2.13;;;;;;;;;;5032051;28;20052;-67
2021/07/07 13:45:50;;;;;;;4.72;1.88;;;;;;;;;;5038233;28;20462;-66
2021/07/07 13:48:16;;;;;;;5.60;1.98;;;;;;;;;;5046689;28;20052;-66
2021/07/07 13:50:42;;;;;;;5.53;1.83;;;;;;;;;;5033721;28;20041;-66
2021/07/07 13:53:09;;;;;;;5.15;1.73;;;;;;;;;;5041769;28;20116;-66
2021/07/07 13:55:35;;;;;;;5.60;1.60;;;;;;;;;;5028431;28;20425;-66
2021/07/07 13:58:01;;;;;;;6.88;1.80;;;;;;;;;;5044211;28;20121;-66
2021/07/07 14:00:27;;;;;;;5.22;1.77;;;;;;;;;;5036724;28;20087;-66
2021/07/07 14:02:53;;;;;;;4.50;1.70;;;;;;;;;;5044564;28;20419;-66
2021/07/07 14:05:19;;;;;;;5.78;1.65;;;;;;;;;;5033984;28;20124;-67
2021/07/07 14:07:47;;;;;;;5.35;1.33;;;;;;;;;;5043042;28;20492;-67
2021/07/07 14:10:13;;;;;;;4.45;1.63;;;;;;;;;;5029040;28;20112;-67
2021/07/07 14:12:39;;;;;;;3.13;1.25;;;;;;;;;;5032775;28;20060;-67
2021/07/07 14:15:05;;;;;;;2.33;1.10;;;;;;;;;;5030244;28;20083;-68
2021/07/07 14:17:31;;;;;;;4.88;0.98;;;;;;;;;;5036882;28;20032;-68
2021/07/07 14:19:57;;;;;;;3.88;1.10;;;;;;;;;;5028658;28;20060;-68
2021/07/07 14:22:24;;;;;;;6.32;1.70;;;;;;;;;;5041440;28;20067;-67
2021/07/07 14:24:50;;;;;;;3.28;1.35;;;;;;;;;;5036486;28;20045;-69
2021/07/07 14:27:16;;;;;;;6.32;1.27;;;;;;;;;;5040371;28;20345;-67
2021/07/07 14:29:43;;;;;;;5.30;1.48;;;;;;;;;;5044331;28;20241;-67
2021/07/07 14:32:09;;;;;;;6.30;1.08;;;;;;;;;;5038118;28;20550;-67
2021/07/07 14:34:35;;;;;;;5.70;1.35;;;;;;;;;;5044247;28;20045;-66
2021/07/07 14:37:01;;;;;;;4.63;1.45;;;;;;;;;;5036978;28;20052;-67
2021/07/07 14:39:28;;;;;;;4.38;1.40;;;;;;;;;;5045497;28;20041;-67
2021/07/07 14:41:54;;;;;;;4.38;1.75;;;;;;;;;;5033150;28;20052;-67
2021/07/07 14:44:22;;;;;;;4.97;1.65;;;;;;;;;;5034474;28;20087;-67
2021/07/07 14:46:48;;;;;;;7.20;1.50;;;;;;;;;;5023441;28;20442;-67
2021/07/07 14:49:14;;;;;;;8.93;1.80;;;;;;;;;;5035481;28;20053;-69